sensor_id;sensor_type;location;lat;lon;timestamp;P1;durP1;ratioP1;P2;durP2;ratioP2
6282;SDS011;3174;53.486;9.568;2023-07-02T00:00:15;3.53;;;1.70;;
6282;SDS011;3174;53.486;9.568;2023-07-02T00:02:45;2.23;;;1.30;;
6282;SDS011;3174;53.486;9.568;2023-07-02T00:05:13;2.30;;;1.20;;
6282;SDS011;3174;53.486;9.568;2023-07-02T00:07:41;3.43;;;1.40;;
6282;SDS011;3174;53.486;9.568;2023-07-02T00:10:09;5.43;;;2.00;;
6282;SDS011;3174;53.486;9.568;2023-07-02T00:12:38;3.97;;;1.70;;
6282;SDS011;3174;53.486;9.568;2023-07-02T00:15:06;3.63;;;1.33;;
6282;SDS011;3174;53.486;9.568;2023-07-02T00:17:34;2.33;;;1.47;;
6282;SDS011;3174;53.486;9.568;2023-07-02T00:20:08;4.10;;;1.63;;
6282;SDS011;3174;53.486;9.568;2023-07-02T00:22:41;2.27;;;1.50;;
6282;SDS011;3174;53.486;9.568;2023-07-02T00:25:12;5.97;;;2.17;;
6282;SDS011;3174;53.486;9.568;2023-07-02T00:27:43;4.87;;;1.80;;
6282;SDS011;3174;53.486;9.568;2023-07-02T00:30:11;3.30;;;1.70;;
6282;SDS011;3174;53.486;9.568;2023-07-02T00:32:39;6.03;;;1.90;;
6282;SDS011;3174;53.486;9.568;2023-07-02T00:35:09;3.97;;;1.40;;
6282;SDS011;3174;53.486;9.568;2023-07-02T00:37:36;4.47;;;1.27;;
6282;SDS011;3174;53.486;9.568;2023-07-02T00:40:05;2.77;;;1.60;;
6282;SDS011;3174;53.486;9.568;2023-07-02T00:42:35;5.00;;;1.57;;
6282;SDS011;3174;53.486;9.568;2023-07-02T00:45:03;3.30;;;1.80;;
6282;SDS011;3174;53.486;9.568;2023-07-02T00:47:33;4.77;;;1.80;;
6282;SDS011;3174;53.486;9.568;2023-07-02T00:50:02;6.10;;;2.17;;
6282;SDS011;3174;53.486;9.568;2023-07-02T00:52:32;6.70;;;2.23;;
6282;SDS011;3174;53.486;9.568;2023-07-02T00:55:00;4.00;;;1.47;;
6282;SDS011;3174;53.486;9.568;2023-07-02T00:57:28;2.30;;;1.30;;
6282;SDS011;3174;53.486;9.568;2023-07-02T00:59:56;2.83;;;1.43;;
6282;SDS011;3174;53.486;9.568;2023-07-02T01:02:26;2.57;;;1.57;;
6282;SDS011;3174;53.486;9.568;2023-07-02T01:04:56;4.47;;;1.90;;
6282;SDS011;3174;53.486;9.568;2023-07-02T01:07:27;8.00;;;2.00;;
6282;SDS011;3174;53.486;9.568;2023-07-02T01:09:56;4.87;;;2.07;;
6282;SDS011;3174;53.486;9.568;2023-07-02T01:12:24;2.87;;;1.50;;
6282;SDS011;3174;53.486;9.568;2023-07-02T01:14:53;3.77;;;1.87;;
6282;SDS011;3174;53.486;9.568;2023-07-02T01:17:25;8.50;;;2.70;;
6282;SDS011;3174;53.486;9.568;2023-07-02T01:19:55;2.30;;;1.63;;
6282;SDS011;3174;53.486;9.568;2023-07-02T01:22:27;3.33;;;2.13;;
6282;SDS011;3174;53.486;9.568;2023-07-02T01:24:55;2.63;;;1.77;;
6282;SDS011;3174;53.486;9.568;2023-07-02T01:27:24;2.20;;;1.93;;
6282;SDS011;3174;53.486;9.568;2023-07-02T01:29:52;4.63;;;2.07;;
6282;SDS011;3174;53.486;9.568;2023-07-02T01:32:20;7.10;;;2.13;;
6282;SDS011;3174;53.486;9.568;2023-07-02T01:34:49;3.37;;;1.60;;
6282;SDS011;3174;53.486;9.568;2023-07-02T01:37:23;6.10;;;2.17;;
6282;SDS011;3174;53.486;9.568;2023-07-02T01:39:51;5.33;;;1.80;;
6282;SDS011;3174;53.486;9.568;2023-07-02T01:42:19;4.90;;;2.00;;
6282;SDS011;3174;53.486;9.568;2023-07-02T01:44:47;3.50;;;1.57;;
6282;SDS011;3174;53.486;9.568;2023-07-02T01:47:17;4.97;;;2.20;;
6282;SDS011;3174;53.486;9.568;2023-07-02T01:49:47;4.47;;;2.03;;
6282;SDS011;3174;53.486;9.568;2023-07-02T01:52:16;3.70;;;2.23;;
6282;SDS011;3174;53.486;9.568;2023-07-02T01:54:45;8.40;;;2.70;;
6282;SDS011;3174;53.486;9.568;2023-07-02T01:57:13;6.33;;;2.20;;
6282;SDS011;3174;53.486;9.568;2023-07-02T01:59:41;3.60;;;2.00;;
6282;SDS011;3174;53.486;9.568;2023-07-02T02:02:09;3.87;;;1.77;;
6282;SDS011;3174;53.486;9.568;2023-07-02T02:04:37;3.97;;;2.47;;
6282;SDS011;3174;53.486;9.568;2023-07-02T02:07:05;2.80;;;1.70;;
6282;SDS011;3174;53.486;9.568;2023-07-02T02:09:33;2.40;;;1.70;;
6282;SDS011;3174;53.486;9.568;2023-07-02T02:12:03;2.90;;;1.90;;
6282;SDS011;3174;53.486;9.568;2023-07-02T02:14:32;7.60;;;2.50;;
6282;SDS011;3174;53.486;9.568;2023-07-02T02:17:00;3.73;;;2.47;;
6282;SDS011;3174;53.486;9.568;2023-07-02T02:19:28;3.20;;;2.20;;
6282;SDS011;3174;53.486;9.568;2023-07-02T02:21:56;4.27;;;2.10;;
6282;SDS011;3174;53.486;9.568;2023-07-02T02:24:24;5.93;;;1.93;;
6282;SDS011;3174;53.486;9.568;2023-07-02T02:26:52;3.73;;;2.03;;
6282;SDS011;3174;53.486;9.568;2023-07-02T02:29:21;2.20;;;2.00;;
6282;SDS011;3174;53.486;9.568;2023-07-02T02:31:49;2.93;;;1.67;;
6282;SDS011;3174;53.486;9.568;2023-07-02T02:34:17;7.47;;;2.30;;
6282;SDS011;3174;53.486;9.568;2023-07-02T02:36:45;4.33;;;1.97;;
6282;SDS011;3174;53.486;9.568;2023-07-02T02:39:13;4.10;;;2.20;;
6282;SDS011;3174;53.486;9.568;2023-07-02T02:41:41;7.50;;;2.57;;
6282;SDS011;3174;53.486;9.568;2023-07-02T02:44:09;5.03;;;2.03;;
6282;SDS011;3174;53.486;9.568;2023-07-02T02:46:39;4.40;;;2.20;;
6282;SDS011;3174;53.486;9.568;2023-07-02T02:49:07;4.43;;;2.20;;
6282;SDS011;3174;53.486;9.568;2023-07-02T02:51:35;2.93;;;2.10;;
6282;SDS011;3174;53.486;9.568;2023-07-02T02:54:03;3.20;;;2.10;;
6282;SDS011;3174;53.486;9.568;2023-07-02T02:56:31;5.07;;;2.70;;
6282;SDS011;3174;53.486;9.568;2023-07-02T02:58:58;4.83;;;2.70;;
6282;SDS011;3174;53.486;9.568;2023-07-02T03:01:26;5.50;;;2.10;;
6282;SDS011;3174;53.486;9.568;2023-07-02T03:03:59;3.33;;;2.07;;
6282;SDS011;3174;53.486;9.568;2023-07-02T03:06:27;6.33;;;2.33;;
6282;SDS011;3174;53.486;9.568;2023-07-02T03:08:55;3.83;;;2.00;;
6282;SDS011;3174;53.486;9.568;2023-07-02T03:11:23;3.17;;;1.80;;
6282;SDS011;3174;53.486;9.568;2023-07-02T03:13:51;4.80;;;2.40;;
6282;SDS011;3174;53.486;9.568;2023-07-02T03:16:19;3.10;;;1.90;;
6282;SDS011;3174;53.486;9.568;2023-07-02T03:18:48;7.97;;;2.30;;
6282;SDS011;3174;53.486;9.568;2023-07-02T03:21:17;3.47;;;1.83;;
6282;SDS011;3174;53.486;9.568;2023-07-02T03:23:45;4.80;;;2.63;;
6282;SDS011;3174;53.486;9.568;2023-07-02T03:26:13;5.30;;;2.50;;
6282;SDS011;3174;53.486;9.568;2023-07-02T03:28:41;6.93;;;1.97;;
6282;SDS011;3174;53.486;9.568;2023-07-02T03:31:09;5.53;;;2.70;;
6282;SDS011;3174;53.486;9.568;2023-07-02T03:33:37;3.80;;;2.67;;
6282;SDS011;3174;53.486;9.568;2023-07-02T03:36:05;5.17;;;2.50;;
6282;SDS011;3174;53.486;9.568;2023-07-02T03:38:35;9.23;;;3.20;;
6282;SDS011;3174;53.486;9.568;2023-07-02T03:41:03;5.23;;;2.50;;
6282;SDS011;3174;53.486;9.568;2023-07-02T03:43:31;7.17;;;3.03;;
6282;SDS011;3174;53.486;9.568;2023-07-02T03:45:59;7.97;;;3.00;;
6282;SDS011;3174;53.486;9.568;2023-07-02T03:48:27;5.60;;;2.83;;
6282;SDS011;3174;53.486;9.568;2023-07-02T03:50:55;8.40;;;2.93;;
6282;SDS011;3174;53.486;9.568;2023-07-02T03:53:23;6.80;;;3.03;;
6282;SDS011;3174;53.486;9.568;2023-07-02T03:55:52;6.83;;;2.80;;
6282;SDS011;3174;53.486;9.568;2023-07-02T03:58:20;7.97;;;2.87;;
6282;SDS011;3174;53.486;9.568;2023-07-02T04:00:48;5.43;;;2.47;;
6282;SDS011;3174;53.486;9.568;2023-07-02T04:03:17;11.33;;;3.07;;
6282;SDS011;3174;53.486;9.568;2023-07-02T04:05:45;5.60;;;3.20;;
6282;SDS011;3174;53.486;9.568;2023-07-02T04:08:14;8.23;;;2.77;;
6282;SDS011;3174;53.486;9.568;2023-07-02T04:10:42;5.90;;;2.53;;
6282;SDS011;3174;53.486;9.568;2023-07-02T04:13:12;8.47;;;3.03;;
6282;SDS011;3174;53.486;9.568;2023-07-02T04:15:40;8.10;;;3.80;;
6282;SDS011;3174;53.486;9.568;2023-07-02T04:18:08;11.60;;;3.00;;
6282;SDS011;3174;53.486;9.568;2023-07-02T04:20:36;7.03;;;2.97;;
6282;SDS011;3174;53.486;9.568;2023-07-02T04:23:05;7.90;;;2.87;;
6282;SDS011;3174;53.486;9.568;2023-07-02T04:25:33;9.07;;;3.30;;
6282;SDS011;3174;53.486;9.568;2023-07-02T04:28:22;6.03;;;3.10;;
6282;SDS011;3174;53.486;9.568;2023-07-02T04:30:50;6.67;;;2.80;;
6282;SDS011;3174;53.486;9.568;2023-07-02T04:33:19;6.47;;;3.17;;
6282;SDS011;3174;53.486;9.568;2023-07-02T04:35:47;7.77;;;3.83;;
6282;SDS011;3174;53.486;9.568;2023-07-02T04:38:16;7.33;;;2.97;;
6282;SDS011;3174;53.486;9.568;2023-07-02T04:40:44;5.63;;;2.90;;
6282;SDS011;3174;53.486;9.568;2023-07-02T04:43:12;9.07;;;3.57;;
6282;SDS011;3174;53.486;9.568;2023-07-02T04:45:46;11.80;;;3.30;;
6282;SDS011;3174;53.486;9.568;2023-07-02T04:48:15;8.40;;;2.60;;
6282;SDS011;3174;53.486;9.568;2023-07-02T04:50:43;8.77;;;3.30;;
6282;SDS011;3174;53.486;9.568;2023-07-02T04:53:11;7.83;;;2.93;;
6282;SDS011;3174;53.486;9.568;2023-07-02T04:55:39;5.87;;;2.80;;
6282;SDS011;3174;53.486;9.568;2023-07-02T04:58:07;10.03;;;3.53;;
6282;SDS011;3174;53.486;9.568;2023-07-02T05:00:35;8.00;;;3.53;;
6282;SDS011;3174;53.486;9.568;2023-07-02T05:03:04;8.87;;;3.10;;
6282;SDS011;3174;53.486;9.568;2023-07-02T05:05:32;7.97;;;3.20;;
6282;SDS011;3174;53.486;9.568;2023-07-02T05:08:00;9.40;;;4.20;;
6282;SDS011;3174;53.486;9.568;2023-07-02T05:10:31;8.67;;;3.47;;
6282;SDS011;3174;53.486;9.568;2023-07-02T05:12:59;11.57;;;4.20;;
6282;SDS011;3174;53.486;9.568;2023-07-02T05:15:27;8.70;;;3.53;;
6282;SDS011;3174;53.486;9.568;2023-07-02T05:17:55;10.87;;;3.67;;
6282;SDS011;3174;53.486;9.568;2023-07-02T05:20:25;14.10;;;4.53;;
6282;SDS011;3174;53.486;9.568;2023-07-02T05:22:53;9.23;;;4.30;;
6282;SDS011;3174;53.486;9.568;2023-07-02T05:25:21;5.87;;;2.77;;
6282;SDS011;3174;53.486;9.568;2023-07-02T05:27:49;15.73;;;4.20;;
6282;SDS011;3174;53.486;9.568;2023-07-02T05:30:17;10.87;;;3.70;;
6282;SDS011;3174;53.486;9.568;2023-07-02T05:32:45;7.63;;;3.60;;
6282;SDS011;3174;53.486;9.568;2023-07-02T05:35:13;17.43;;;4.10;;
6282;SDS011;3174;53.486;9.568;2023-07-02T05:37:43;15.07;;;4.20;;
6282;SDS011;3174;53.486;9.568;2023-07-02T05:40:11;8.40;;;3.80;;
6282;SDS011;3174;53.486;9.568;2023-07-02T05:42:43;13.87;;;4.20;;
6282;SDS011;3174;53.486;9.568;2023-07-02T05:45:11;14.37;;;4.60;;
6282;SDS011;3174;53.486;9.568;2023-07-02T05:47:39;13.83;;;4.70;;
6282;SDS011;3174;53.486;9.568;2023-07-02T05:50:08;14.30;;;4.30;;
6282;SDS011;3174;53.486;9.568;2023-07-02T05:52:37;9.03;;;4.03;;
6282;SDS011;3174;53.486;9.568;2023-07-02T05:55:07;10.27;;;4.63;;
6282;SDS011;3174;53.486;9.568;2023-07-02T05:57:36;13.27;;;4.10;;
6282;SDS011;3174;53.486;9.568;2023-07-02T06:00:05;8.93;;;3.60;;
6282;SDS011;3174;53.486;9.568;2023-07-02T06:02:33;13.63;;;4.30;;
6282;SDS011;3174;53.486;9.568;2023-07-02T06:05:01;13.40;;;4.60;;
6282;SDS011;3174;53.486;9.568;2023-07-02T06:07:30;11.90;;;4.50;;
6282;SDS011;3174;53.486;9.568;2023-07-02T06:09:58;11.07;;;4.30;;
6282;SDS011;3174;53.486;9.568;2023-07-02T06:12:27;11.70;;;4.20;;
6282;SDS011;3174;53.486;9.568;2023-07-02T06:14:55;11.37;;;4.00;;
6282;SDS011;3174;53.486;9.568;2023-07-02T06:17:23;9.43;;;4.37;;
6282;SDS011;3174;53.486;9.568;2023-07-02T06:19:51;16.90;;;4.23;;
6282;SDS011;3174;53.486;9.568;2023-07-02T06:22:19;13.67;;;5.37;;
6282;SDS011;3174;53.486;9.568;2023-07-02T06:24:47;13.57;;;4.30;;
6282;SDS011;3174;53.486;9.568;2023-07-02T06:27:15;14.47;;;5.23;;
6282;SDS011;3174;53.486;9.568;2023-07-02T06:29:44;11.70;;;4.37;;
6282;SDS011;3174;53.486;9.568;2023-07-02T06:32:12;14.53;;;4.83;;
6282;SDS011;3174;53.486;9.568;2023-07-02T06:34:40;10.87;;;4.80;;
6282;SDS011;3174;53.486;9.568;2023-07-02T06:37:08;12.67;;;4.87;;
6282;SDS011;3174;53.486;9.568;2023-07-02T06:39:36;12.90;;;4.30;;
6282;SDS011;3174;53.486;9.568;2023-07-02T06:42:04;10.80;;;4.30;;
6282;SDS011;3174;53.486;9.568;2023-07-02T06:44:32;15.97;;;4.23;;
6282;SDS011;3174;53.486;9.568;2023-07-02T06:47:02;15.67;;;4.37;;
6282;SDS011;3174;53.486;9.568;2023-07-02T06:49:30;13.27;;;4.47;;
6282;SDS011;3174;53.486;9.568;2023-07-02T06:51:58;14.27;;;4.93;;
6282;SDS011;3174;53.486;9.568;2023-07-02T06:54:27;13.27;;;4.27;;
6282;SDS011;3174;53.486;9.568;2023-07-02T06:56:54;9.27;;;3.90;;
6282;SDS011;3174;53.486;9.568;2023-07-02T06:59:23;15.83;;;4.70;;
6282;SDS011;3174;53.486;9.568;2023-07-02T07:01:51;11.73;;;4.70;;
6282;SDS011;3174;53.486;9.568;2023-07-02T07:04:20;11.93;;;3.97;;
6282;SDS011;3174;53.486;9.568;2023-07-02T07:06:49;12.97;;;3.90;;
6282;SDS011;3174;53.486;9.568;2023-07-02T07:09:17;16.30;;;4.67;;
6282;SDS011;3174;53.486;9.568;2023-07-02T07:11:45;11.00;;;4.33;;
6282;SDS011;3174;53.486;9.568;2023-07-02T07:14:13;15.80;;;4.03;;
6282;SDS011;3174;53.486;9.568;2023-07-02T07:16:41;11.83;;;3.93;;
6282;SDS011;3174;53.486;9.568;2023-07-02T07:19:09;9.80;;;4.23;;
6282;SDS011;3174;53.486;9.568;2023-07-02T07:21:38;11.97;;;4.00;;
6282;SDS011;3174;53.486;9.568;2023-07-02T07:24:06;16.00;;;4.67;;
6282;SDS011;3174;53.486;9.568;2023-07-02T07:26:34;10.07;;;4.00;;
6282;SDS011;3174;53.486;9.568;2023-07-02T07:29:03;9.40;;;4.50;;
6282;SDS011;3174;53.486;9.568;2023-07-02T07:31:31;16.03;;;4.67;;
6282;SDS011;3174;53.486;9.568;2023-07-02T07:33:59;12.97;;;4.10;;
6282;SDS011;3174;53.486;9.568;2023-07-02T07:36:27;9.30;;;4.03;;
6282;SDS011;3174;53.486;9.568;2023-07-02T07:38:57;10.23;;;4.23;;
6282;SDS011;3174;53.486;9.568;2023-07-02T07:41:25;10.57;;;4.20;;
6282;SDS011;3174;53.486;9.568;2023-07-02T07:43:53;11.33;;;4.20;;
6282;SDS011;3174;53.486;9.568;2023-07-02T07:46:21;10.10;;;3.90;;
6282;SDS011;3174;53.486;9.568;2023-07-02T07:48:50;9.60;;;4.20;;
6282;SDS011;3174;53.486;9.568;2023-07-02T07:51:18;12.03;;;4.37;;
6282;SDS011;3174;53.486;9.568;2023-07-02T07:53:46;10.67;;;3.23;;
6282;SDS011;3174;53.486;9.568;2023-07-02T07:56:16;8.77;;;3.93;;
6282;SDS011;3174;53.486;9.568;2023-07-02T07:58:44;7.97;;;3.83;;
6282;SDS011;3174;53.486;9.568;2023-07-02T08:01:12;8.53;;;3.47;;
6282;SDS011;3174;53.486;9.568;2023-07-02T08:03:40;11.07;;;3.60;;
6282;SDS011;3174;53.486;9.568;2023-07-02T08:06:08;11.03;;;3.40;;
6282;SDS011;3174;53.486;9.568;2023-07-02T08:08:36;6.53;;;3.07;;
6282;SDS011;3174;53.486;9.568;2023-07-02T08:11:04;8.37;;;3.33;;
6282;SDS011;3174;53.486;9.568;2023-07-02T08:13:33;7.50;;;3.43;;
6282;SDS011;3174;53.486;9.568;2023-07-02T08:16:01;4.80;;;2.63;;
6282;SDS011;3174;53.486;9.568;2023-07-02T08:18:29;7.30;;;3.50;;
6282;SDS011;3174;53.486;9.568;2023-07-02T08:20:57;5.93;;;3.13;;
6282;SDS011;3174;53.486;9.568;2023-07-02T08:23:27;8.43;;;2.73;;
6282;SDS011;3174;53.486;9.568;2023-07-02T08:25:55;10.03;;;3.20;;
6282;SDS011;3174;53.486;9.568;2023-07-02T08:28:23;11.37;;;3.30;;
6282;SDS011;3174;53.486;9.568;2023-07-02T08:30:52;10.43;;;2.93;;
6282;SDS011;3174;53.486;9.568;2023-07-02T08:33:20;10.07;;;3.27;;
6282;SDS011;3174;53.486;9.568;2023-07-02T08:35:49;10.93;;;3.60;;
6282;SDS011;3174;53.486;9.568;2023-07-02T08:38:17;7.13;;;3.20;;
6282;SDS011;3174;53.486;9.568;2023-07-02T08:40:45;14.40;;;3.50;;
6282;SDS011;3174;53.486;9.568;2023-07-02T08:43:13;8.97;;;3.17;;
6282;SDS011;3174;53.486;9.568;2023-07-02T08:45:41;7.27;;;3.30;;
6282;SDS011;3174;53.486;9.568;2023-07-02T08:48:12;12.33;;;3.30;;
6282;SDS011;3174;53.486;9.568;2023-07-02T08:50:42;11.40;;;3.37;;
6282;SDS011;3174;53.486;9.568;2023-07-02T08:53:10;7.97;;;3.77;;
6282;SDS011;3174;53.486;9.568;2023-07-02T08:55:38;6.33;;;3.17;;
6282;SDS011;3174;53.486;9.568;2023-07-02T08:58:06;7.57;;;3.30;;
6282;SDS011;3174;53.486;9.568;2023-07-02T09:00:34;11.27;;;3.73;;
6282;SDS011;3174;53.486;9.568;2023-07-02T09:03:14;8.33;;;3.43;;
6282;SDS011;3174;53.486;9.568;2023-07-02T09:05:49;9.07;;;2.97;;
6282;SDS011;3174;53.486;9.568;2023-07-02T09:08:24;9.67;;;3.17;;
6282;SDS011;3174;53.486;9.568;2023-07-02T09:10:54;6.00;;;2.90;;
6282;SDS011;3174;53.486;9.568;2023-07-02T09:13:23;5.67;;;3.30;;
6282;SDS011;3174;53.486;9.568;2023-07-02T09:15:51;8.27;;;3.40;;
6282;SDS011;3174;53.486;9.568;2023-07-02T09:18:21;9.33;;;3.50;;
6282;SDS011;3174;53.486;9.568;2023-07-02T09:20:51;9.97;;;3.40;;
6282;SDS011;3174;53.486;9.568;2023-07-02T09:23:19;7.33;;;3.10;;
6282;SDS011;3174;53.486;9.568;2023-07-02T09:25:47;5.23;;;3.07;;
6282;SDS011;3174;53.486;9.568;2023-07-02T09:28:17;7.20;;;3.17;;
6282;SDS011;3174;53.486;9.568;2023-07-02T09:30:49;10.60;;;3.43;;
6282;SDS011;3174;53.486;9.568;2023-07-02T09:33:21;8.20;;;3.40;;
6282;SDS011;3174;53.486;9.568;2023-07-02T09:35:49;9.70;;;4.10;;
6282;SDS011;3174;53.486;9.568;2023-07-02T09:38:18;9.17;;;3.40;;
6282;SDS011;3174;53.486;9.568;2023-07-02T09:40:49;6.00;;;3.60;;
6282;SDS011;3174;53.486;9.568;2023-07-02T09:43:19;7.03;;;3.20;;
6282;SDS011;3174;53.486;9.568;2023-07-02T09:45:52;9.33;;;3.07;;
6282;SDS011;3174;53.486;9.568;2023-07-02T09:48:25;9.60;;;3.00;;
6282;SDS011;3174;53.486;9.568;2023-07-02T09:50:56;6.80;;;2.93;;
6282;SDS011;3174;53.486;9.568;2023-07-02T09:53:27;7.70;;;2.67;;
6282;SDS011;3174;53.486;9.568;2023-07-02T09:55:56;7.37;;;2.57;;
6282;SDS011;3174;53.486;9.568;2023-07-02T09:58:24;8.83;;;2.87;;
6282;SDS011;3174;53.486;9.568;2023-07-02T10:00:52;6.43;;;2.53;;
6282;SDS011;3174;53.486;9.568;2023-07-02T10:03:31;7.37;;;2.83;;
6282;SDS011;3174;53.486;9.568;2023-07-02T10:06:03;7.10;;;3.10;;
6282;SDS011;3174;53.486;9.568;2023-07-02T10:08:32;11.90;;;3.10;;
6282;SDS011;3174;53.486;9.568;2023-07-02T10:11:07;6.93;;;3.00;;
6282;SDS011;3174;53.486;9.568;2023-07-02T10:13:36;8.37;;;3.13;;
6282;SDS011;3174;53.486;9.568;2023-07-02T10:16:05;5.00;;;2.60;;
6282;SDS011;3174;53.486;9.568;2023-07-02T10:18:35;8.13;;;2.80;;
6282;SDS011;3174;53.486;9.568;2023-07-02T10:21:13;8.10;;;2.90;;
6282;SDS011;3174;53.486;9.568;2023-07-02T10:23:42;6.20;;;2.50;;
6282;SDS011;3174;53.486;9.568;2023-07-02T10:26:13;6.13;;;2.67;;
6282;SDS011;3174;53.486;9.568;2023-07-02T10:28:42;8.73;;;2.20;;
6282;SDS011;3174;53.486;9.568;2023-07-02T10:31:19;4.97;;;2.20;;
6282;SDS011;3174;53.486;9.568;2023-07-02T10:33:49;7.23;;;2.33;;
6282;SDS011;3174;53.486;9.568;2023-07-02T10:36:19;8.27;;;1.93;;
6282;SDS011;3174;53.486;9.568;2023-07-02T10:38:48;5.70;;;2.03;;
6282;SDS011;3174;53.486;9.568;2023-07-02T10:41:25;6.97;;;2.27;;
6282;SDS011;3174;53.486;9.568;2023-07-02T10:44:04;5.40;;;2.03;;
6282;SDS011;3174;53.486;9.568;2023-07-02T10:46:33;6.13;;;2.40;;
6282;SDS011;3174;53.486;9.568;2023-07-02T10:49:05;10.67;;;2.20;;
6282;SDS011;3174;53.486;9.568;2023-07-02T10:51:35;5.47;;;2.13;;
6282;SDS011;3174;53.486;9.568;2023-07-02T10:54:03;4.70;;;2.10;;
6282;SDS011;3174;53.486;9.568;2023-07-02T10:56:34;3.60;;;2.10;;
6282;SDS011;3174;53.486;9.568;2023-07-02T10:59:02;4.80;;;2.00;;
6282;SDS011;3174;53.486;9.568;2023-07-02T11:01:31;3.87;;;1.90;;
6282;SDS011;3174;53.486;9.568;2023-07-02T11:04:00;3.87;;;2.07;;
6282;SDS011;3174;53.486;9.568;2023-07-02T11:06:32;4.80;;;1.87;;
6282;SDS011;3174;53.486;9.568;2023-07-02T11:09:00;7.03;;;1.70;;
6282;SDS011;3174;53.486;9.568;2023-07-02T11:11:30;5.40;;;1.77;;
6282;SDS011;3174;53.486;9.568;2023-07-02T11:13:58;5.47;;;1.70;;
6282;SDS011;3174;53.486;9.568;2023-07-02T11:16:27;4.43;;;1.60;;
6282;SDS011;3174;53.486;9.568;2023-07-02T11:19:05;4.40;;;1.40;;
6282;SDS011;3174;53.486;9.568;2023-07-02T11:21:36;5.73;;;1.77;;
6282;SDS011;3174;53.486;9.568;2023-07-02T11:24:05;4.73;;;1.80;;
6282;SDS011;3174;53.486;9.568;2023-07-02T11:26:35;5.13;;;1.53;;
6282;SDS011;3174;53.486;9.568;2023-07-02T11:29:03;2.03;;;1.30;;
6282;SDS011;3174;53.486;9.568;2023-07-02T11:31:34;3.63;;;1.47;;
6282;SDS011;3174;53.486;9.568;2023-07-02T11:34:10;5.60;;;1.67;;
6282;SDS011;3174;53.486;9.568;2023-07-02T11:36:40;3.93;;;1.60;;
6282;SDS011;3174;53.486;9.568;2023-07-02T11:39:08;3.13;;;1.37;;
6282;SDS011;3174;53.486;9.568;2023-07-02T11:41:36;2.20;;;1.40;;
6282;SDS011;3174;53.486;9.568;2023-07-02T11:44:05;4.53;;;1.70;;
6282;SDS011;3174;53.486;9.568;2023-07-02T11:46:33;5.80;;;2.60;;
6282;SDS011;3174;53.486;9.568;2023-07-02T11:49:03;3.57;;;1.80;;
6282;SDS011;3174;53.486;9.568;2023-07-02T11:51:35;5.03;;;1.77;;
6282;SDS011;3174;53.486;9.568;2023-07-02T11:54:07;3.97;;;1.70;;
6282;SDS011;3174;53.486;9.568;2023-07-02T11:56:35;5.43;;;1.60;;
6282;SDS011;3174;53.486;9.568;2023-07-02T11:59:04;8.13;;;2.37;;
6282;SDS011;3174;53.486;9.568;2023-07-02T12:01:32;3.73;;;1.77;;
6282;SDS011;3174;53.486;9.568;2023-07-02T12:04:00;4.33;;;1.60;;
6282;SDS011;3174;53.486;9.568;2023-07-02T12:06:28;7.93;;;2.20;;
6282;SDS011;3174;53.486;9.568;2023-07-02T12:08:56;4.27;;;1.57;;
6282;SDS011;3174;53.486;9.568;2023-07-02T12:11:26;3.27;;;1.60;;
6282;SDS011;3174;53.486;9.568;2023-07-02T12:13:54;3.67;;;1.47;;
6282;SDS011;3174;53.486;9.568;2023-07-02T12:16:22;5.97;;;1.50;;
6282;SDS011;3174;53.486;9.568;2023-07-02T12:18:50;4.30;;;1.60;;
6282;SDS011;3174;53.486;9.568;2023-07-02T12:21:18;5.40;;;1.70;;
6282;SDS011;3174;53.486;9.568;2023-07-02T12:23:46;3.73;;;2.00;;
6282;SDS011;3174;53.486;9.568;2023-07-02T12:26:14;4.80;;;2.00;;
6282;SDS011;3174;53.486;9.568;2023-07-02T12:28:43;5.23;;;1.77;;
6282;SDS011;3174;53.486;9.568;2023-07-02T12:31:11;2.97;;;1.60;;
6282;SDS011;3174;53.486;9.568;2023-07-02T12:33:40;3.97;;;1.80;;
6282;SDS011;3174;53.486;9.568;2023-07-02T12:36:08;4.97;;;1.80;;
6282;SDS011;3174;53.486;9.568;2023-07-02T12:38:36;7.07;;;1.70;;
6282;SDS011;3174;53.486;9.568;2023-07-02T12:41:04;3.77;;;1.70;;
6282;SDS011;3174;53.486;9.568;2023-07-02T12:43:32;6.40;;;1.83;;
6282;SDS011;3174;53.486;9.568;2023-07-02T12:46:02;3.07;;;1.60;;
6282;SDS011;3174;53.486;9.568;2023-07-02T12:48:30;3.87;;;1.90;;
6282;SDS011;3174;53.486;9.568;2023-07-02T12:50:58;6.83;;;1.60;;
6282;SDS011;3174;53.486;9.568;2023-07-02T12:53:27;7.40;;;2.00;;
6282;SDS011;3174;53.486;9.568;2023-07-02T12:55:55;4.07;;;1.60;;
6282;SDS011;3174;53.486;9.568;2023-07-02T12:58:23;2.97;;;1.60;;
6282;SDS011;3174;53.486;9.568;2023-07-02T13:00:51;5.97;;;1.50;;
6282;SDS011;3174;53.486;9.568;2023-07-02T13:03:22;6.00;;;1.80;;
6282;SDS011;3174;53.486;9.568;2023-07-02T13:05:51;3.70;;;1.57;;
6282;SDS011;3174;53.486;9.568;2023-07-02T13:08:19;4.40;;;1.57;;
6282;SDS011;3174;53.486;9.568;2023-07-02T13:10:47;4.97;;;1.90;;
6282;SDS011;3174;53.486;9.568;2023-07-02T13:13:15;6.10;;;2.10;;
6282;SDS011;3174;53.486;9.568;2023-07-02T13:15:49;3.87;;;1.87;;
6282;SDS011;3174;53.486;9.568;2023-07-02T13:18:18;5.53;;;1.83;;
6282;SDS011;3174;53.486;9.568;2023-07-02T13:20:47;5.03;;;1.67;;
6282;SDS011;3174;53.486;9.568;2023-07-02T13:23:15;5.00;;;1.80;;
6282;SDS011;3174;53.486;9.568;2023-07-02T13:25:43;9.03;;;1.67;;
6282;SDS011;3174;53.486;9.568;2023-07-02T13:28:11;7.87;;;1.50;;
6282;SDS011;3174;53.486;9.568;2023-07-02T13:30:39;3.50;;;1.50;;
6282;SDS011;3174;53.486;9.568;2023-07-02T13:33:07;3.63;;;1.70;;
6282;SDS011;3174;53.486;9.568;2023-07-02T13:35:35;8.90;;;2.00;;
6282;SDS011;3174;53.486;9.568;2023-07-02T13:38:05;3.00;;;1.53;;
6282;SDS011;3174;53.486;9.568;2023-07-02T13:40:33;6.73;;;1.90;;
6282;SDS011;3174;53.486;9.568;2023-07-02T13:43:01;4.27;;;1.67;;
6282;SDS011;3174;53.486;9.568;2023-07-02T13:45:30;4.27;;;1.80;;
6282;SDS011;3174;53.486;9.568;2023-07-02T13:47:58;4.20;;;1.53;;
6282;SDS011;3174;53.486;9.568;2023-07-02T13:50:26;2.60;;;1.83;;
6282;SDS011;3174;53.486;9.568;2023-07-02T13:52:54;7.17;;;1.50;;
6282;SDS011;3174;53.486;9.568;2023-07-02T13:55:24;5.13;;;1.90;;
6282;SDS011;3174;53.486;9.568;2023-07-02T13:57:54;6.87;;;1.60;;
6282;SDS011;3174;53.486;9.568;2023-07-02T14:00:24;4.57;;;1.80;;
6282;SDS011;3174;53.486;9.568;2023-07-02T14:02:53;2.80;;;1.60;;
6282;SDS011;3174;53.486;9.568;2023-07-02T14:05:21;3.27;;;1.30;;
6282;SDS011;3174;53.486;9.568;2023-07-02T14:07:50;2.37;;;1.77;;
6282;SDS011;3174;53.486;9.568;2023-07-02T14:10:18;3.73;;;1.60;;
6282;SDS011;3174;53.486;9.568;2023-07-02T14:12:46;4.93;;;1.73;;
6282;SDS011;3174;53.486;9.568;2023-07-02T14:15:14;2.23;;;1.50;;
6282;SDS011;3174;53.486;9.568;2023-07-02T14:17:43;9.83;;;1.70;;
6282;SDS011;3174;53.486;9.568;2023-07-02T14:20:12;6.17;;;2.10;;
6282;SDS011;3174;53.486;9.568;2023-07-02T14:22:40;6.30;;;1.73;;
6282;SDS011;3174;53.486;9.568;2023-07-02T14:25:08;3.33;;;1.70;;
6282;SDS011;3174;53.486;9.568;2023-07-02T14:27:36;4.90;;;2.07;;
6282;SDS011;3174;53.486;9.568;2023-07-02T14:30:05;5.47;;;1.90;;
6282;SDS011;3174;53.486;9.568;2023-07-02T14:32:34;3.60;;;1.57;;
6282;SDS011;3174;53.486;9.568;2023-07-02T14:35:04;8.00;;;1.90;;
6282;SDS011;3174;53.486;9.568;2023-07-02T14:37:32;4.43;;;2.10;;
6282;SDS011;3174;53.486;9.568;2023-07-02T14:40:00;4.07;;;1.70;;
6282;SDS011;3174;53.486;9.568;2023-07-02T14:42:32;5.67;;;1.80;;
6282;SDS011;3174;53.486;9.568;2023-07-02T14:45:00;5.30;;;2.33;;
6282;SDS011;3174;53.486;9.568;2023-07-02T14:47:28;3.37;;;1.80;;
6282;SDS011;3174;53.486;9.568;2023-07-02T14:49:56;4.40;;;1.97;;
6282;SDS011;3174;53.486;9.568;2023-07-02T14:52:26;5.37;;;2.23;;
6282;SDS011;3174;53.486;9.568;2023-07-02T14:54:54;4.00;;;2.10;;
6282;SDS011;3174;53.486;9.568;2023-07-02T14:57:22;5.00;;;2.03;;
6282;SDS011;3174;53.486;9.568;2023-07-02T14:59:50;5.57;;;1.73;;
6282;SDS011;3174;53.486;9.568;2023-07-02T15:02:18;7.80;;;2.60;;
6282;SDS011;3174;53.486;9.568;2023-07-02T15:04:46;3.00;;;1.73;;
6282;SDS011;3174;53.486;9.568;2023-07-02T15:07:15;3.70;;;1.60;;
6282;SDS011;3174;53.486;9.568;2023-07-02T15:09:44;7.17;;;1.90;;
6282;SDS011;3174;53.486;9.568;2023-07-02T15:12:12;5.30;;;1.70;;
6282;SDS011;3174;53.486;9.568;2023-07-02T15:14:40;8.30;;;2.33;;
6282;SDS011;3174;53.486;9.568;2023-07-02T15:17:08;2.67;;;1.73;;
6282;SDS011;3174;53.486;9.568;2023-07-02T15:19:36;3.03;;;1.67;;
6282;SDS011;3174;53.486;9.568;2023-07-02T15:22:04;4.30;;;1.83;;